createdAt,value
2018-11-14T00:00:48.111Z,8.00
2018-11-14T00:03:29.648Z,8.10
2018-11-14T00:06:11.339Z,8.67
2018-11-14T00:08:53.649Z,7.73
2018-11-14T00:11:36.070Z,7.93
2018-11-14T00:14:18.160Z,8.23
2018-11-14T00:17:00.117Z,7.93
2018-11-14T00:19:42.321Z,8.00
2018-11-14T00:22:25.388Z,8.67
2018-11-14T00:25:07.521Z,8.03
2018-11-14T00:27:49.922Z,8.53
2018-11-14T00:30:32.229Z,8.50
2018-11-14T00:33:14.667Z,8.57
2018-11-14T00:35:55.997Z,7.93
2018-11-14T00:38:37.577Z,8.83
2018-11-14T00:41:19.897Z,7.80
2018-11-14T00:44:02.620Z,8.47
2018-11-14T00:46:45.132Z,7.47
2018-11-14T00:49:27.949Z,8.23
2018-11-14T00:52:09.520Z,8.67
2018-11-14T00:54:51.323Z,9.10
2018-11-14T00:57:34.223Z,9.00
2018-11-14T01:00:17.589Z,9.33
2018-11-14T01:02:59.851Z,8.53
2018-11-14T01:05:43.110Z,9.03
2018-11-14T01:08:24.905Z,9.00
2018-11-14T01:11:06.504Z,8.47
2018-11-14T01:13:48.584Z,9.53
2018-11-14T01:16:30.678Z,10.17
2018-11-14T01:19:13.504Z,9.00
2018-11-14T01:21:57.546Z,8.97
2018-11-14T01:24:39.361Z,9.37
2018-11-14T01:27:21.615Z,9.43
2018-11-14T01:30:04.542Z,8.10
2018-11-14T01:32:47.337Z,9.50
2018-11-14T01:35:28.953Z,8.80
2018-11-14T01:38:11.005Z,10.00
2018-11-14T01:40:53.348Z,9.27
2018-11-14T01:43:35.344Z,9.60
2018-11-14T01:46:18.377Z,10.03
2018-11-14T01:49:00.469Z,10.03
2018-11-14T01:51:42.405Z,8.67
2018-11-14T01:54:24.988Z,9.40
2018-11-14T01:57:07.097Z,9.13
2018-11-14T01:59:49.737Z,9.60
2018-11-14T02:02:32.943Z,9.37
2018-11-14T02:05:14.713Z,9.00
2018-11-14T02:07:57.064Z,9.93
2018-11-14T02:10:39.425Z,8.80
2018-11-14T02:13:21.240Z,9.17
2018-11-14T02:16:03.658Z,10.33
2018-11-14T02:18:45.833Z,8.33
2018-11-14T02:21:28.004Z,8.87
2018-11-14T02:24:10.606Z,8.30
2018-11-14T02:26:53.541Z,8.43
2018-11-14T02:29:35.256Z,9.13
2018-11-14T02:32:17.381Z,9.73
2018-11-14T02:35:00.178Z,9.30
2018-11-14T02:37:43.381Z,9.00
2018-11-14T02:40:25.231Z,9.33
2018-11-14T02:43:08.770Z,9.07
2018-11-14T02:45:51.163Z,9.00
2018-11-14T02:48:33.234Z,9.57
2018-11-14T02:51:25.535Z,10.27
2018-11-14T02:54:07.485Z,9.17
2018-11-14T02:56:49.386Z,9.90
2018-11-14T02:59:31.915Z,9.20
2018-11-14T03:02:18.208Z,10.30
2018-11-14T03:05:00.761Z,10.73
2018-11-14T03:07:43.289Z,10.37
2018-11-14T03:10:25.730Z,9.50
2018-11-14T03:13:08.035Z,8.13
2018-11-14T03:15:50.851Z,9.00
2018-11-14T03:18:32.951Z,9.63
2018-11-14T03:21:14.665Z,9.67
2018-11-14T03:23:57.379Z,9.13
2018-11-14T03:26:39.469Z,9.60
2018-11-14T03:29:21.257Z,8.30
2018-11-14T03:32:04.237Z,9.63
2018-11-14T03:34:46.475Z,8.90
2018-11-14T03:37:28.801Z,9.07
2018-11-14T03:40:13.236Z,9.37
2018-11-14T03:42:55.642Z,8.27
2018-11-14T03:45:37.537Z,8.77
2018-11-14T03:48:19.639Z,9.83
2018-11-14T03:51:01.425Z,7.53
2018-11-14T03:53:43.345Z,9.73
2018-11-14T03:56:27.684Z,8.67
2018-11-14T03:59:10.280Z,10.60
2018-11-14T04:01:53.016Z,8.03
2018-11-14T04:04:35.861Z,8.57
2018-11-14T04:07:17.921Z,7.80
2018-11-14T04:10:00.149Z,8.83
2018-11-14T04:12:42.385Z,9.40
2018-11-14T04:15:24.638Z,9.10
2018-11-14T04:18:07.245Z,8.77
2018-11-14T04:20:49.780Z,8.37
2018-11-14T04:23:31.860Z,9.10
2018-11-14T04:26:13.881Z,8.77
2018-11-14T04:28:56.470Z,8.80
2018-11-14T04:31:38.570Z,8.80
2018-11-14T04:34:21.273Z,9.30
2018-11-14T04:37:04.185Z,8.10
2018-11-14T04:39:46.168Z,8.57
2018-11-14T04:42:27.812Z,9.00
2018-11-14T04:45:15.628Z,9.47
2018-11-14T04:47:58.112Z,8.27
2018-11-14T04:50:40.630Z,8.43
2018-11-14T04:53:22.779Z,8.13
2018-11-14T04:56:04.890Z,9.13
2018-11-14T04:58:46.559Z,9.83
2018-11-14T05:01:29.221Z,9.73
2018-11-14T05:04:11.225Z,9.37
2018-11-14T05:06:53.545Z,9.03
2018-11-14T05:09:36.345Z,9.70
2018-11-14T05:12:17.846Z,8.63
2018-11-14T05:14:59.975Z,8.90
2018-11-14T05:17:42.698Z,8.83
2018-11-14T05:20:24.982Z,9.00
2018-11-14T05:23:07.313Z,9.53
2018-11-14T05:25:50.932Z,8.30
2018-11-14T05:28:33.210Z,8.30
2018-11-14T05:31:14.975Z,8.83
2018-11-14T05:33:57.721Z,8.50
2018-11-14T05:36:39.292Z,8.57
2018-11-14T05:39:21.328Z,8.57
2018-11-14T05:42:04.085Z,9.47
2018-11-14T05:44:46.380Z,9.57
2018-11-14T05:47:28.922Z,9.40
2018-11-14T05:50:13.558Z,9.27
2018-11-14T05:52:56.529Z,10.30
2018-11-14T05:55:39.058Z,8.87
2018-11-14T05:58:22.073Z,9.20
2018-11-14T06:01:03.628Z,8.57
2018-11-14T06:03:45.245Z,9.67
2018-11-14T06:06:27.739Z,9.10
2018-11-14T06:09:10.742Z,9.63
2018-11-14T06:11:52.835Z,10.23
2018-11-14T06:14:34.261Z,10.03
2018-11-14T06:17:16.231Z,10.17
2018-11-14T06:19:58.274Z,9.50
2018-11-14T06:22:40.240Z,10.40
2018-11-14T06:25:30.977Z,9.93
2018-11-14T06:28:12.660Z,10.00
2018-11-14T06:30:55.010Z,9.63
2018-11-14T06:33:36.864Z,9.30
2018-11-14T06:39:28.476Z,9.93
2018-11-14T06:42:10.389Z,10.00
2018-11-14T06:44:52.579Z,10.03
2018-11-14T06:47:34.879Z,10.23
2018-11-14T06:50:16.589Z,10.57
2018-11-14T06:53:06.974Z,10.17
2018-11-14T06:55:48.696Z,10.23
2018-11-14T06:58:30.261Z,9.60
2018-11-14T07:01:12.345Z,9.70
2018-11-14T07:03:54.577Z,10.07
2018-11-14T07:06:36.442Z,10.20
2018-11-14T07:09:18.538Z,9.23
2018-11-14T07:12:00.978Z,11.43
2018-11-14T07:14:42.639Z,9.93
2018-11-14T07:17:25.047Z,10.23
2018-11-14T07:20:15.373Z,10.63
2018-11-14T07:22:57.471Z,10.30
2018-11-14T07:25:39.757Z,10.23
2018-11-14T07:28:21.242Z,11.30
2018-11-14T07:31:03.804Z,10.20
2018-11-14T07:33:46.246Z,10.10
2018-11-14T07:36:28.734Z,11.17
2018-11-14T07:39:11.192Z,10.90
2018-11-14T07:41:53.563Z,11.47
2018-11-14T07:44:35.179Z,10.77
2018-11-14T07:47:16.892Z,11.23
2018-11-14T07:49:59.307Z,9.67
2018-11-14T07:52:41.043Z,8.97
2018-11-14T07:55:23.600Z,10.27
2018-11-14T07:58:05.898Z,9.87
2018-11-14T08:00:47.697Z,8.07
2018-11-14T08:03:29.903Z,6.73
2018-11-14T08:06:12.311Z,7.43
2018-11-14T08:08:54.102Z,6.17
2018-11-14T08:11:36.610Z,6.90
2018-11-14T08:14:19.234Z,8.00
2018-11-14T08:17:01.244Z,7.07
2018-11-14T08:19:44.067Z,6.27
2018-11-14T08:22:25.626Z,6.10
2018-11-14T08:25:09.498Z,6.17
2018-11-14T08:27:51.840Z,6.80
2018-11-14T08:30:34.065Z,6.20
2018-11-14T08:33:16.237Z,6.97
2018-11-14T08:35:58.454Z,6.50
2018-11-14T08:38:39.816Z,8.50
2018-11-14T08:41:22.414Z,7.13
2018-11-14T08:44:04.513Z,7.40
2018-11-14T08:46:46.754Z,7.40
2018-11-14T08:49:29.048Z,6.43
2018-11-14T08:52:11.150Z,6.80
2018-11-14T08:54:53.592Z,6.57
2018-11-14T08:57:36.410Z,6.60
2018-11-14T09:00:20.730Z,5.30
2018-11-14T09:03:03.170Z,6.67
2018-11-14T09:05:45.443Z,6.50
2018-11-14T09:08:27.536Z,6.90
2018-11-14T09:11:09.695Z,6.80
2018-11-14T09:13:51.476Z,6.80
2018-11-14T09:16:34.701Z,7.33
2018-11-14T09:19:16.362Z,6.43
2018-11-14T09:21:58.669Z,7.43
2018-11-14T09:24:40.668Z,8.03
2018-11-14T09:27:22.562Z,6.40
2018-11-14T09:30:05.655Z,6.60
2018-11-14T09:32:47.664Z,7.13
2018-11-14T09:35:29.540Z,6.20
2018-11-14T09:38:12.182Z,6.10
2018-11-14T09:40:55.951Z,5.47
2018-11-14T09:43:38.039Z,5.63
2018-11-14T09:46:20.061Z,4.90
2018-11-14T09:49:01.806Z,5.43
2018-11-14T09:51:43.318Z,5.17
2018-11-14T09:54:25.316Z,6.07
2018-11-14T09:57:08.747Z,5.27
2018-11-14T09:59:50.661Z,5.10
2018-11-14T10:02:32.969Z,4.87
2018-11-14T10:05:16.633Z,5.50
2018-11-14T10:07:59.350Z,4.97
2018-11-14T10:10:41.628Z,5.43
2018-11-14T10:13:24.599Z,5.27
2018-11-14T10:16:06.443Z,6.20
2018-11-14T10:18:48.217Z,5.27
2018-11-14T10:21:31.107Z,4.60
2018-11-14T10:24:13.589Z,5.50
2018-11-14T10:26:55.877Z,5.30
2018-11-14T10:29:38.890Z,5.37
2018-11-14T10:32:20.750Z,3.90
2018-11-14T10:35:02.350Z,5.50
2018-11-14T10:37:44.680Z,4.17
2018-11-14T10:40:27.508Z,4.63
2018-11-14T10:43:09.166Z,4.77
2018-11-14T10:45:51.147Z,4.03
2018-11-14T10:48:33.083Z,4.03
2018-11-14T10:51:14.641Z,3.80
2018-11-14T10:53:56.316Z,4.43
2018-11-14T10:56:37.686Z,4.07
2018-11-14T10:59:20.325Z,4.20
2018-11-14T11:02:08.405Z,4.20
2018-11-14T11:04:55.552Z,3.40
2018-11-14T11:07:43.253Z,3.40
2018-11-14T11:10:30.609Z,3.80
2018-11-14T11:13:18.029Z,3.57
2018-11-14T11:16:41.467Z,3.07
2018-11-14T11:19:26.028Z,3.00
2018-11-14T11:22:07.708Z,3.90
2018-11-14T11:24:50.023Z,2.80
2018-11-14T11:27:32.727Z,2.23
2018-11-14T11:30:15.006Z,2.53
2018-11-14T11:32:56.625Z,2.20
2018-11-14T11:35:42.756Z,2.60
2018-11-14T11:38:25.893Z,2.90
2018-11-14T11:41:08.771Z,2.57
2018-11-14T11:43:50.941Z,2.67
2018-11-14T11:46:32.894Z,2.70
2018-11-14T11:49:15.309Z,2.37
2018-11-14T11:51:57.470Z,3.13
2018-11-14T11:54:38.916Z,2.33
2018-11-14T11:57:20.636Z,2.33
2018-11-14T12:00:03.341Z,2.77
2018-11-14T12:02:46.084Z,2.20
2018-11-14T12:05:27.964Z,2.20
2018-11-14T12:08:16.228Z,2.50
2018-11-14T12:11:05.650Z,2.17
2018-11-14T12:13:48.783Z,2.33
2018-11-14T12:16:31.210Z,2.17
2018-11-14T12:19:14.166Z,1.93
2018-11-14T12:21:55.822Z,2.53
2018-11-14T12:24:38.457Z,2.10
2018-11-14T12:27:20.865Z,2.50
2018-11-14T12:30:02.569Z,1.70
2018-11-14T12:32:44.855Z,1.70
2018-11-14T12:35:26.483Z,2.00
2018-11-14T12:38:09.042Z,2.10
2018-11-14T12:40:51.049Z,2.00
2018-11-14T12:43:41.459Z,1.93
2018-11-14T12:46:36.596Z,2.17
2018-11-14T12:49:19.156Z,2.13
2018-11-14T12:52:01.290Z,2.67
2018-11-14T12:54:43.661Z,2.07
2018-11-14T12:57:25.684Z,2.67
2018-11-14T13:00:09.656Z,2.10
2018-11-14T13:02:55.264Z,1.83
2018-11-14T13:05:44.791Z,2.30
2018-11-14T13:08:26.636Z,2.80
2018-11-14T13:11:08.456Z,2.87
2018-11-14T13:13:50.144Z,2.27
2018-11-14T13:16:32.444Z,2.00
2018-11-14T13:19:14.055Z,1.93
2018-11-14T13:21:55.835Z,1.87
2018-11-14T13:24:37.932Z,2.20
2018-11-14T13:27:19.809Z,2.00
2018-11-14T13:30:02.437Z,1.77
2018-11-14T13:32:45.338Z,3.57
2018-11-14T13:35:27.250Z,2.90
2018-11-14T13:38:08.729Z,1.90
2018-11-14T13:40:50.410Z,2.50
2018-11-14T13:43:31.892Z,2.77
2018-11-14T13:46:13.468Z,1.43
2018-11-14T13:48:55.296Z,2.47
2018-11-14T13:51:37.405Z,2.00
2018-11-14T13:54:18.670Z,2.53
2018-11-14T13:57:01.313Z,3.57
2018-11-14T13:59:43.517Z,2.83
2018-11-14T14:02:25.894Z,2.20
2018-11-14T14:05:10.619Z,5.93
2018-11-14T14:07:53.011Z,2.83
2018-11-14T14:10:35.480Z,2.17
2018-11-14T14:13:17.194Z,2.07
2018-11-14T14:15:58.307Z,1.70
2018-11-14T14:18:40.657Z,2.60
2018-11-14T14:21:22.830Z,2.10
2018-11-14T14:24:04.554Z,1.80
2018-11-14T14:26:46.844Z,2.07
2018-11-14T14:29:28.361Z,2.10
2018-11-14T14:32:10.659Z,2.30
2018-11-14T14:34:51.930Z,2.07
2018-11-14T14:37:33.315Z,2.00
2018-11-14T14:40:17.994Z,2.30
2018-11-14T14:42:59.661Z,2.33
2018-11-14T14:45:41.646Z,2.37
2018-11-14T14:48:25.057Z,2.30
2018-11-14T14:51:07.929Z,2.03
2018-11-14T14:53:50.201Z,1.90
2018-11-14T14:56:32.804Z,2.23
2018-11-14T14:59:15.299Z,2.60
2018-11-14T15:02:01.378Z,2.80
2018-11-14T15:04:43.564Z,1.93
2018-11-14T15:07:25.649Z,2.73
2018-11-14T15:10:10.353Z,2.53
2018-11-14T15:12:52.834Z,2.03
2018-11-14T15:15:35.014Z,2.30
2018-11-14T15:18:17.100Z,2.57
2018-11-14T15:20:59.315Z,2.33
2018-11-14T15:23:40.711Z,2.67
2018-11-14T15:26:22.374Z,2.63
2018-11-14T15:29:04.268Z,3.20
2018-11-14T15:31:46.353Z,2.50
2018-11-14T15:34:29.731Z,2.57
2018-11-14T15:37:11.404Z,2.63
2018-11-14T15:39:53.184Z,2.67
2018-11-14T15:42:36.160Z,2.83
2018-11-14T15:45:20.642Z,3.27
2018-11-14T15:48:02.257Z,3.40
2018-11-14T15:50:43.953Z,3.33
2018-11-14T15:53:26.445Z,4.60
2018-11-14T15:56:08.593Z,4.93
2018-11-14T15:59:03.198Z,4.43
2018-11-14T16:01:46.792Z,5.03
2018-11-14T16:04:28.578Z,5.40
2018-11-14T16:07:11.074Z,5.63
2018-11-14T16:09:53.917Z,5.70
2018-11-14T16:12:36.777Z,4.90
2018-11-14T16:15:19.902Z,6.53
2018-11-14T16:18:02.038Z,7.93
2018-11-14T16:20:44.880Z,8.10
2018-11-14T16:23:26.966Z,8.20
2018-11-14T16:26:08.368Z,7.60
2018-11-14T16:28:51.394Z,8.17
2018-11-14T16:31:33.780Z,8.73
2018-11-14T16:34:15.909Z,8.60
2018-11-14T16:36:57.990Z,9.50
2018-11-14T16:42:33.469Z,8.17
2018-11-14T16:45:16.232Z,8.33
2018-11-14T16:47:58.087Z,7.93
2018-11-14T16:50:42.008Z,8.10
2018-11-14T16:53:24.116Z,9.90
2018-11-14T16:56:07.969Z,8.50
2018-11-14T16:58:49.842Z,8.70
2018-11-14T17:01:32.579Z,9.00
2018-11-14T17:04:14.349Z,9.23
2018-11-14T17:06:55.976Z,8.37
2018-11-14T17:09:38.357Z,7.97
2018-11-14T17:12:21.305Z,8.77
2018-11-14T17:15:05.569Z,8.50
2018-11-14T17:17:47.006Z,8.63
2018-11-14T17:20:30.238Z,8.23
2018-11-14T17:23:22.099Z,7.50
2018-11-14T17:26:05.033Z,7.23
2018-11-14T17:28:47.393Z,7.30
2018-11-14T17:31:29.049Z,8.30
2018-11-14T17:34:10.688Z,7.23
2018-11-14T17:36:52.381Z,7.53
2018-11-14T17:39:34.918Z,7.67
2018-11-14T17:42:18.035Z,8.57
2018-11-14T17:45:00.007Z,8.27
2018-11-14T17:47:43.192Z,8.80
2018-11-14T17:50:27.439Z,8.60
2018-11-14T17:53:09.484Z,8.50
2018-11-14T17:55:51.046Z,7.93
2018-11-14T17:58:33.529Z,8.53
2018-11-14T18:01:15.172Z,8.23
2018-11-14T18:03:56.622Z,8.50
2018-11-14T18:06:39.649Z,9.90
2018-11-14T18:09:21.941Z,11.23
2018-11-14T18:12:04.478Z,11.97
2018-11-14T18:14:46.538Z,10.87
2018-11-14T18:17:28.356Z,11.83
2018-11-14T18:20:12.023Z,10.40
2018-11-14T18:22:55.618Z,10.13
2018-11-14T18:25:41.273Z,9.20
2018-11-14T18:28:23.454Z,9.83
2018-11-14T18:31:05.241Z,10.33
2018-11-14T18:33:47.818Z,10.87
2018-11-14T18:36:29.656Z,11.47
2018-11-14T18:39:13.148Z,10.50
2018-11-14T18:41:54.614Z,10.53
2018-11-14T18:44:36.800Z,9.57
2018-11-14T18:47:19.358Z,10.90
2018-11-14T18:50:02.281Z,11.70
2018-11-14T18:52:44.417Z,11.47
2018-11-14T18:55:28.707Z,11.70
2018-11-14T18:58:11.370Z,12.90
2018-11-14T19:00:53.749Z,11.23
2018-11-14T19:03:36.406Z,10.80
2018-11-14T19:06:18.788Z,10.40
2018-11-14T19:09:02.118Z,11.53
2018-11-14T19:11:43.914Z,10.57
2018-11-14T19:14:26.189Z,10.27
2018-11-14T19:17:08.645Z,11.23
2018-11-14T19:19:50.923Z,11.07
2018-11-14T19:22:33.120Z,9.47
2018-11-14T19:25:17.280Z,11.13
2018-11-14T19:27:59.461Z,10.40
2018-11-14T19:30:43.098Z,10.47
2018-11-14T19:33:25.609Z,10.90
2018-11-14T19:36:07.907Z,11.17
2018-11-14T19:38:50.630Z,10.40
2018-11-14T19:41:33.681Z,10.53
2018-11-14T19:44:16.060Z,11.07
2018-11-14T19:46:59.212Z,9.93
2018-11-14T19:49:41.286Z,9.63
2018-11-14T19:52:23.571Z,9.83
2018-11-14T19:55:06.331Z,9.73
2018-11-14T19:57:49.941Z,9.27
2018-11-14T20:00:35.626Z,9.13
2018-11-14T20:03:17.973Z,9.90
2018-11-14T20:05:59.945Z,8.63
2018-11-14T20:08:44.198Z,9.20
2018-11-14T20:11:26.994Z,9.57
2018-11-14T20:14:08.906Z,9.60
2018-11-14T20:16:51.605Z,10.03
2018-11-14T20:19:33.473Z,9.93
2018-11-14T20:22:16.127Z,9.73
2018-11-14T20:24:58.829Z,9.67
2018-11-14T20:27:41.647Z,9.33
2018-11-14T20:30:25.216Z,9.77
2018-11-14T20:33:11.805Z,10.27
2018-11-14T20:35:53.916Z,10.17
2018-11-14T20:38:37.321Z,8.73
2018-11-14T20:41:20.552Z,11.10
2018-11-14T20:44:02.643Z,10.60
2018-11-14T20:46:45.662Z,10.90
2018-11-14T20:49:28.481Z,10.93
2018-11-14T20:52:12.811Z,11.37
2018-11-14T20:54:54.330Z,12.53
2018-11-14T20:57:37.857Z,11.97
2018-11-14T21:00:23.585Z,10.50
2018-11-14T21:03:06.524Z,9.83
2018-11-14T21:05:49.090Z,10.37
2018-11-14T21:08:31.068Z,10.30
2018-11-14T21:11:14.297Z,10.97
2018-11-14T21:13:57.214Z,10.10
2018-11-14T21:16:39.313Z,9.50
2018-11-14T21:19:22.997Z,9.67
2018-11-14T21:22:06.086Z,9.80
2018-11-14T21:24:48.737Z,10.60
2018-11-14T21:27:32.229Z,10.33
2018-11-14T21:30:16.162Z,9.50
2018-11-14T21:32:58.263Z,8.97
2018-11-14T21:35:40.371Z,9.70
2018-11-14T21:38:26.104Z,9.93
2018-11-14T21:41:09.046Z,10.50
2018-11-14T21:43:51.906Z,10.20
2018-11-14T21:46:34.288Z,10.10
2018-11-14T21:49:22.950Z,11.23
2018-11-14T21:52:05.666Z,10.20
2018-11-14T21:54:48.244Z,10.87
2018-11-14T21:57:30.260Z,10.40
2018-11-14T22:00:18.677Z,9.70
2018-11-14T22:03:01.029Z,9.90
2018-11-14T22:05:43.901Z,10.30
2018-11-14T22:08:26.450Z,9.50
2018-11-14T22:11:08.733Z,11.07
2018-11-14T22:13:51.198Z,10.10
2018-11-14T22:18:52.602Z,10.03
2018-11-14T22:21:34.858Z,11.43
2018-11-14T22:24:17.442Z,11.93
2018-11-14T22:26:59.860Z,12.93
2018-11-14T22:29:42.390Z,11.63
2018-11-14T22:32:24.665Z,12.77
2018-11-14T22:35:08.735Z,12.13
2018-11-14T22:37:50.829Z,13.10
2018-11-14T22:40:33.329Z,13.00
2018-11-14T22:43:15.408Z,11.87
2018-11-14T22:45:57.101Z,13.07
2018-11-14T22:48:39.113Z,11.40
2018-11-14T22:51:21.649Z,11.50
2018-11-14T22:54:03.853Z,11.73
2018-11-14T22:56:46.078Z,12.70
2018-11-14T22:59:28.845Z,11.70
2018-11-14T23:02:11.066Z,12.70
2018-11-14T23:04:54.382Z,12.00
2018-11-14T23:07:37.422Z,14.13
2018-11-14T23:10:20.754Z,12.57
2018-11-14T23:13:02.949Z,11.93
2018-11-14T23:15:45.580Z,15.23
2018-11-14T23:18:27.960Z,14.17
2018-11-14T23:21:09.872Z,13.23
2018-11-14T23:23:51.750Z,13.73
2018-11-14T23:26:34.910Z,14.67
2018-11-14T23:29:17.709Z,13.57
2018-11-14T23:31:59.670Z,13.80
2018-11-14T23:34:47.112Z,14.17
2018-11-14T23:37:28.598Z,14.00
2018-11-14T23:43:54.956Z,15.23
2018-11-14T23:46:38.258Z,15.23
2018-11-14T23:49:19.917Z,15.83
2018-11-14T23:52:02.782Z,15.47
2018-11-14T23:54:45.081Z,14.90
2018-11-14T23:57:28.016Z,15.50
